Terminal Aerodrome Forecast
Issued by NWS Birmingham, AL

Home | Current Version | Previous Version | Text Only | Print | Product List | Glossary On
Versions: 1 2 3 4 5 6 7 8 9 10 11 12 13 14
000
FTUS44 KBMX 290520
TAFBHM
TAF
KBHM 290520Z 2906/3006 12003KT P6SM SCT250
     FM291100 00000KT 4SM BR BKN015
     FM291600 14004KT 6SM SHRA VCTS BKN015CB
     FM292100 11006KT P6SM VCTS SCT025CB OVC050=

USA.gov is the U.S. government's official web portal to all federal, state and local government web resources and services.